Latest Weather Observations for Lord Howe Island Windy Point

IDN60801

Issued at 5:03 pm EST Wednesday 29 June 2016 (issued every 30 minutes, with the page automatically refreshed every 10 minutes)

About weather observations | Map of weather stations | Latest weather observations for NSW | Other Formats
Station Details ID: 200715 Name: LORD HOWE ISLAND WINDY POINT Lat: -31.54 Lon: 159.07 Height: 4.0 m
Data from the previous 72 hours. | See also: Recent months for locations in New South Wales
Date/Time
EST
Temp
°C
App
Temp
°C
Dew
Point
°C
Rel
Hum
%
Delta-T
°C
Wind Press
QNH
hPa
Press
MSL
hPa
Rain since
9am
mm
Dir  Spd
km/h
Gust
km/h
Spd
kts
Gust
kts
29/05:00pm - - - - - S 28 37 15 20 - - -
29/04:30pm - - - - - S 28 43 15 23 - - -
29/04:00pm - - - - - S 24 37 13 20 - - -
29/03:30pm - - - - - SSE 24 41 13 22 - - -
29/03:00pm - - - - - S 26 44 14 24 - - -
29/02:30pm - - - - - S 28 46 15 25 - - -
29/02:18pm - - - - - S 28 54 15 29 - - -
29/02:00pm - - - - - S 24 41 13 22 - - -
29/01:30pm - - - - - S 28 39 15 21 - - -
29/01:02pm - - - - - S 30 48 16 26 - - -
29/01:00pm - - - - - S 32 48 17 26 - - -
29/12:30pm - - - - - SSW 30 50 16 27 - - -
29/12:00pm - - - - - SSW 28 46 15 25 - - -
29/11:33am - - - - - S 30 50 16 27 - - -
29/11:30am - - - - - S 28 43 15 23 - - -
29/11:00am - - - - - S 30 50 16 27 - - -
29/10:33am - - - - - SSE 28 46 15 25 - - -
29/10:30am - - - - - SSE 26 46 14 25 - - -
29/10:02am - - - - - S 32 50 17 27 - - -
29/10:00am - - - - - S 33 50 18 27 - - -
29/09:30am - - - - - SSW 32 52 17 28 - - -
29/09:00am - - - - - S 33 54 18 29 - - -
29/08:30am - - - - - SSW 33 65 18 35 - - -
29/08:00am - - - - - S 32 61 17 33 - - -
29/07:30am - - - - - S 41 65 22 35 - - -
29/07:05am - - - - - SSW 48 69 26 37 - - -
29/07:00am - - - - - SSW 41 65 22 35 - - -
29/06:31am - - - - - SSE 30 57 16 31 - - -
29/06:30am - - - - - SSE 30 65 16 35 - - -
29/06:29am - - - - - SSE 32 65 17 35 - - -
29/06:00am - - - - - S 41 63 22 34 - - -
29/05:30am - - - - - SSE 39 67 21 36 - - -
29/05:10am - - - - - SSE 37 74 20 40 - - -
29/05:06am - - - - - SSE 44 95 24 51 - - -
29/05:04am - - - - - S 50 95 27 51 - - -
29/05:00am - - - - - S 50 95 27 51 - - -
29/04:57am - - - - - S 44 83 24 45 - - -
29/04:56am - - - - - S 41 83 22 45 - - -
29/04:30am - - - - - S 35 65 19 35 - - -
29/04:00am - - - - - S 39 72 21 39 - - -
29/03:30am - - - - - S 41 69 22 37 - - -
29/03:00am - - - - - S 44 72 24 39 - - -
29/02:35am - - - - - S 48 80 26 43 - - -
29/02:33am - - - - - S 48 80 26 43 - - -
29/02:30am - - - - - S 46 76 25 41 - - -
29/02:00am - - - - - S 41 72 22 39 - - -
29/01:30am - - - - - S 50 83 27 45 - - -
29/01:00am - - - - - S 50 91 27 49 - - -
29/12:30am - - - - - S 48 82 26 44 - - -
29/12:00am - - - - - SSW 57 93 31 50 - - -
 
Date/Time
EST
Temp
°C
App
Temp
°C
Dew
Point
°C
Rel
Hum
%
Delta-T
°C
Wind Press
QNH
hPa
Press
MSL
hPa
Rain since
9am
mm
Dir  Spd
km/h
Gust
km/h
Spd
kts
Gust
kts
28/11:47pm - - - - - SSW 59 100 32 54 - - -
28/11:30pm - - - - - SSW 54 82 29 44 - - -
28/11:10pm - - - - - S 57 113 31 61 - - -
28/11:00pm - - - - - SSW 54 91 29 49 - - -
28/10:30pm - - - - - S 54 87 29 47 - - -
28/10:29pm - - - - - S 54 87 29 47 - - -
28/10:28pm - - - - - S 52 87 28 47 - - -
28/10:26pm - - - - - S 50 87 27 47 - - -
28/10:25pm - - - - - S 50 87 27 47 - - -
28/10:13pm - - - - - SSW 52 82 28 44 - - -
28/10:12pm - - - - - SSW 52 82 28 44 - - -
28/10:00pm - - - - - S 48 89 26 48 - - -
28/09:30pm - - - - - S 56 106 30 57 - - -
28/09:27pm - - - - - S 57 106 31 57 - - -
28/09:18pm - - - - - S 56 98 30 53 - - -
28/09:00pm - - - - - S 52 83 28 45 - - -
28/08:30pm - - - - - S 52 85 28 46 - - -
28/08:00pm - - - - - S 52 78 28 42 - - -
28/07:30pm - - - - - S 44 76 24 41 - - -
28/07:16pm - - - - - S 39 65 21 35 - - -
28/07:12pm - - - - - S 39 76 21 41 - - -
28/07:10pm - - - - - S 37 76 20 41 - - -
28/07:06pm - - - - - S 37 76 20 41 - - -
28/07:00pm - - - - - S 39 57 21 31 - - -
28/06:30pm - - - - - S 33 57 18 31 - - -
28/06:00pm - - - - - SSW 35 70 19 38 - - -
28/05:52pm - - - - - S 32 70 17 38 - - -
28/05:44pm - - - - - SSE 28 48 15 26 - - -
28/05:30pm - - - - - SSE 24 46 13 25 - - -
28/05:02pm - - - - - S 30 54 16 29 - - -
28/05:00pm - - - - - SSE 28 41 15 22 - - -
28/04:37pm - - - - - S 28 46 15 25 - - -
28/04:30pm - - - - - S 30 43 16 23 - - -
28/04:00pm - - - - - SSW 26 32 14 17 - - -
28/03:30pm - - - - - SSW 26 30 14 16 - - -
28/03:00pm - - - - - SSW 17 20 9 11 - - -
28/02:30pm - - - - - SSW 20 28 11 15 - - -
28/02:00pm - - - - - SW 26 44 14 24 - - -
28/01:57pm - - - - - WSW 20 44 11 24 - - -
28/01:30pm - - - - - WNW 26 39 14 21 - - -
28/01:00pm - - - - - WNW 26 32 14 17 - - -
28/12:30pm - - - - - WNW 26 35 14 19 - - -
28/12:00pm - - - - - WNW 33 44 18 24 - - -
28/11:30am - - - - - WNW 35 46 19 25 - - -
28/11:00am - - - - - NW 32 41 17 22 - - -
28/10:30am - - - - - NW 30 41 16 22 - - -
28/10:00am - - - - - WNW 30 39 16 21 - - -
28/09:30am - - - - - WNW 32 43 17 23 - - -
28/09:00am - - - - - WNW 35 44 19 24 - - -
28/08:30am - - - - - W 35 43 19 23 - - -
28/08:00am - - - - - W 35 54 19 29 - - -
28/07:51am - - - - - NW 32 54 17 29 - - -
28/07:30am - - - - - WNW 30 39 16 21 - - -
28/07:00am - - - - - NW 28 35 15 19 - - -
28/06:30am - - - - - WNW 24 32 13 17 - - -
28/06:00am - - - - - NW 22 39 12 21 - - -
28/05:38am - - - - - WNW 30 41 16 22 - - -
28/05:30am - - - - - W 39 48 21 26 - - -
28/05:00am - - - - - WSW 37 46 20 25 - - -
28/04:30am - - - - - W 35 43 19 23 - - -
28/04:00am - - - - - W 32 37 17 20 - - -
28/03:30am - - - - - W 35 57 19 31 - - -
28/03:00am - - - - - WSW 39 46 21 25 - - -
28/02:30am - - - - - W 35 43 19 23 - - -
28/02:00am - - - - - W 37 50 20 27 - - -
28/01:30am - - - - - W 39 46 21 25 - - -
28/01:00am - - - - - W 39 46 21 25 - - -
28/12:30am - - - - - W 35 50 19 27 - - -
28/12:00am - - - - - WSW 33 41 18 22 - - -
 
Date/Time
EST
Temp
°C
App
Temp
°C
Dew
Point
°C
Rel
Hum
%
Delta-T
°C
Wind Press
QNH
hPa
Press
MSL
hPa
Rain since
9am
mm
Dir  Spd
km/h
Gust
km/h
Spd
kts
Gust
kts
27/11:30pm - - - - - WSW 35 43 19 23 - - -
27/11:00pm - - - - - WSW 35 41 19 22 - - -
27/10:30pm - - - - - WSW 35 41 19 22 - - -
27/10:00pm - - - - - WSW 37 46 20 25 - - -
27/09:30pm - - - - - WSW 30 33 16 18 - - -
27/09:00pm - - - - - W 35 46 19 25 - - -
27/08:52pm - - - - - WNW 35 44 19 24 - - -
27/08:30pm - - - - - NW 32 41 17 22 - - -
27/08:00pm - - - - - NW 17 28 9 15 - - -
27/07:30pm - - - - - NW 19 33 10 18 - - -
27/07:00pm - - - - - NW 20 35 11 19 - - -
27/06:30pm - - - - - NW 17 30 9 16 - - -
27/06:00pm - - - - - NNW 17 24 9 13 - - -
27/05:30pm - - - - - NNW 19 33 10 18 - - -
27/05:00pm - - - - - NNW 26 41 14 22 - - -
27/04:30pm - - - - - NW 17 33 9 18 - - -
27/04:00pm - - - - - NW 7 15 4 8 - - -
27/03:30pm - - - - - NW 17 26 9 14 - - -
27/03:00pm - - - - - NNW 11 17 6 9 - - -
27/02:30pm - - - - - N 6 13 3 7 - - -
27/02:00pm - - - - - NW 17 26 9 14 - - -
27/01:30pm - - - - - NNE 15 22 8 12 - - -
27/01:00pm - - - - - E 17 35 9 19 - - -
27/12:30pm - - - - - ENE 17 26 9 14 - - -
27/12:00pm - - - - - NE 7 13 4 7 - - -
27/11:30am - - - - - N 9 17 5 9 - - -
27/11:00am - - - - - NE 6 7 3 4 - - -
27/10:30am - - - - - NNE 4 9 2 5 - - -
27/10:00am - - - - - NW 2 9 1 5 - - -
27/09:30am - - - - - N 6 13 3 7 - - -
27/09:00am - - - - - CALM 0 6 0 3 - - -
27/08:30am - - - - - N 7 9 4 5 - - -
27/08:00am - - - - - N 4 7 2 4 - - -
27/07:30am - - - - - NNW 7 15 4 8 - - -
27/07:00am - - - - - N 6 9 3 5 - - -
27/06:30am - - - - - N 7 9 4 5 - - -
27/06:00am - - - - - CALM 0 0 0 0 - - -
27/05:30am - - - - - NNW 4 6 2 3 - - -
27/05:00am - - - - - NNW 6 7 3 4 - - -
27/04:30am - - - - - NNW 9 17 5 9 - - -
27/04:00am - - - - - WNW 13 19 7 10 - - -
27/03:30am - - - - - W 13 17 7 9 - - -
27/03:00am - - - - - W 15 19 8 10 - - -
27/02:30am - - - - - W 15 17 8 9 - - -
27/02:00am - - - - - WSW 17 20 9 11 - - -
27/01:30am - - - - - WSW 15 17 8 9 - - -
27/01:00am - - - - - WSW 15 19 8 10 - - -
27/12:30am - - - - - W 15 19 8 10 - - -
27/12:00am - - - - - W 13 19 7 10 - - -
 
Date/Time
EST
Temp
°C
App
Temp
°C
Dew
Point
°C
Rel
Hum
%
Delta-T
°C
Wind Press
QNH
hPa
Press
MSL
hPa
Rain since
9am
mm
Dir  Spd
km/h
Gust
km/h
Spd
kts
Gust
kts
26/11:30pm - - - - - WSW 17 20 9 11 - - -
26/11:00pm - - - - - WSW 17 22 9 12 - - -
26/10:30pm - - - - - WSW 19 22 10 12 - - -
26/10:00pm - - - - - WSW 20 22 11 12 - - -
26/09:30pm - - - - - SW 22 26 12 14 - - -
26/09:00pm - - - - - SW 22 28 12 15 - - -
26/08:30pm - - - - - SW 19 22 10 12 - - -
26/08:00pm - - - - - SSW 15 20 8 11 - - -
26/07:30pm - - - - - SW 17 22 9 12 - - -
26/07:00pm - - - - - SSW 32 39 17 21 - - -
26/06:30pm - - - - - SW 28 32 15 17 - - -
26/06:00pm - - - - - WSW 28 33 15 18 - - -
26/05:30pm - - - - - WSW 28 33 15 18 - - -

Other Formats:

Comma delimited format used in spreadsheet applications
http://www.bom.gov.au/fwo/IDN60801/IDN60801.95995.axf

JavaScript Object Notation format (JSON) in row-major order
http://www.bom.gov.au/fwo/IDN60801/IDN60801.95995.json